Time;durP1;ratioP1;P1;durP2;ratioP2;P2;SDS_P1;SDS_P2;PMS_P1;PMS_P2;Temp;Humidity;BMP_temperature;BMP_pressure;BME280_temperature;BME280_humidity;BME280_pressure;Samples;Min_cycle;Max_cycle;Signal;HPM_P1;HPM_P2
2021/12/19 00:00:18;;;;;;;;;29.25;23.50;;;;;6.43;89.35;103335.19;6242474;22;45377;-73
2021/12/19 00:03:03;;;;;;;;;33.00;29.75;;;;;6.22;89.69;103304.41;6242889;22;45274;-73
2021/12/19 00:10:57;;;;;;;;;28.50;26.50;;;;;5.92;89.83;103273.44;6242404;22;45423;-73
2021/12/19 00:13:25;;;;;;;;;30.75;25.00;;;;;6.32;89.37;103344.53;6242890;22;45400;-74
2021/12/19 00:15:51;;;;;;;;;26.25;24.25;;;;;6.28;89.10;103342.75;6214993;22;45343;-75
2021/12/19 00:18:16;;;;;;;;;22.50;19.75;;;;;5.95;89.27;103294.34;6242838;22;45099;-73
2021/12/19 00:20:42;;;;;;;;;34.25;25.75;;;;;6.14;88.97;103326.84;6242491;22;46272;-75
2021/12/19 00:23:07;;;;;;;;;31.25;26.50;;;;;6.22;89.38;103346.13;6242181;22;45169;-73
2021/12/19 00:25:33;;;;;;;;;27.25;22.25;;;;;6.13;89.38;103324.19;6242801;22;45362;-74
2021/12/19 00:27:59;;;;;;;;;32.00;23.75;;;;;6.26;89.75;103342.72;6242990;22;45378;-73
2021/12/19 00:30:24;;;;;;;;;34.00;24.25;;;;;6.26;89.66;103347.91;6241942;22;45936;-74
2021/12/19 00:32:50;;;;;;;;;32.75;25.00;;;;;6.26;90.05;103340.09;6242746;22;45287;-75
2021/12/19 00:35:15;;;;;;;;;33.25;25.25;;;;;6.09;89.55;103308.53;6215191;22;45505;-74
2021/12/19 00:37:41;;;;;;;;;29.50;22.25;;;;;6.25;89.32;103338.38;6243077;22;45282;-75
2021/12/19 00:40:08;;;;;;;;;33.50;27.50;;;;;6.02;88.94;103293.63;6242941;22;45343;-73
2021/12/19 00:42:35;;;;;;;;;34.75;27.00;;;;;6.20;89.04;103326.97;6241994;22;45438;-74
2021/12/19 00:45:16;;;;;;;;;32.25;23.25;;;;;6.19;89.05;103329.53;6242478;22;45350;-75
2021/12/19 00:47:45;;;;;;;;;28.75;23.50;;;;;5.92;88.91;103291.66;6241874;22;45485;-73
2021/12/19 00:50:12;;;;;;;;;29.25;25.00;;;;;5.84;88.79;103278.47;6242120;22;45414;-73
2021/12/19 00:52:46;;;;;;;;;28.25;24.25;;;;;5.84;88.22;103293.25;6242859;22;45132;-74
2021/12/19 00:55:17;;;;;;;;;22.75;20.25;;;;;5.98;88.69;103314.38;6242884;22;45343;-75
2021/12/19 00:57:44;;;;;;;;;29.50;25.25;;;;;5.93;89.02;103298.63;6214582;22;45378;-74
2021/12/19 01:00:12;;;;;;;;;28.50;23.00;;;;;6.08;88.81;103318.94;6214490;22;47651;-74
2021/12/19 01:02:38;;;;;;;;;28.25;20.25;;;;;5.96;89.75;103308.28;6242401;22;45363;-74
2021/12/19 01:05:05;;;;;;;;;32.50;25.00;;;;;5.96;89.35;103303.06;6241980;22;45373;-75
2021/12/19 01:07:30;;;;;;;;;30.50;26.00;;;;;6.04;88.67;103322.31;6243033;22;45444;-74
2021/12/19 01:09:56;;;;;;;;;26.75;20.25;;;;;5.89;88.86;103299.41;6241979;22;46028;-74
2021/12/19 01:12:23;;;;;;;;;30.50;27.25;;;;;6.00;88.69;103312.69;6241636;22;45355;-74
2021/12/19 01:14:49;;;;;;;;;31.50;23.00;;;;;5.65;89.36;103258.13;6242672;22;45548;-74
2021/12/19 01:17:14;;;;;;;;;35.75;30.00;;;;;5.92;89.36;103304.69;6240821;22;45339;-74
2021/12/19 01:19:40;;;;;;;;;28.50;22.00;;;;;5.60;89.97;103245.03;6240277;22;46572;-74
2021/12/19 01:22:05;;;;;;;;;36.50;29.25;;;;;5.34;89.61;103200.25;6242692;22;45315;-74
2021/12/19 01:24:31;;;;;;;;;34.75;28.25;;;;;5.84;90.53;103286.28;6242998;22;45346;-75
2021/12/19 01:26:57;;;;;;;;;37.50;29.25;;;;;4.96;89.84;103135.31;6242825;22;45311;-74
2021/12/19 01:29:22;;;;;;;;;39.50;32.75;;;;;5.98;89.95;103310.03;6242542;22;45279;-76
2021/12/19 01:31:48;;;;;;;;;28.75;25.25;;;;;5.60;89.76;103238.97;6242457;22;45312;-74
2021/12/19 01:34:13;;;;;;;;;37.75;30.25;;;;;6.00;89.99;103307.47;6242722;22;45321;-74
2021/12/19 01:36:43;;;;;;;;;38.00;28.50;;;;;5.58;89.53;103241.53;6214892;22;45318;-74
2021/12/19 01:39:10;;;;;;;;;37.50;27.50;;;;;5.98;89.98;103311.78;6242550;22;46215;-75
2021/12/19 01:41:44;;;;;;;;;39.25;28.50;;;;;5.48;90.39;103227.44;6242477;22;45280;-74
2021/12/19 01:44:10;;;;;;;;;37.75;24.75;;;;;5.85;89.95;103282.84;6242148;22;45299;-74
2021/12/19 01:46:36;;;;;;;;;25.75;22.25;;;;;5.84;89.94;103275.00;6241402;22;45090;-75
2021/12/19 01:49:02;;;;;;;;;38.50;30.75;;;;;5.99;89.47;103306.59;6214779;22;48216;-73
2021/12/19 01:51:28;;;;;;;;;26.75;26.25;;;;;5.97;90.37;103312.63;6242563;22;45186;-74
2021/12/19 01:53:54;;;;;;;;;34.25;31.00;;;;;5.98;90.36;103310.03;6242486;22;45322;-75
2021/12/19 01:56:19;;;;;;;;;38.00;29.75;;;;;5.80;90.34;103265.38;6242569;22;45251;-73
2021/12/19 01:58:46;;;;;;;;;34.25;28.00;;;;;5.45;90.69;103206.53;6241404;22;46091;-74
2021/12/19 02:01:13;;;;;;;;;30.75;26.00;;;;;6.04;90.91;103304.06;6242290;22;45308;-75
2021/12/19 02:03:38;;;;;;;;;37.25;28.25;;;;;6.06;90.69;103311.06;6242764;22;45290;-75
2021/12/19 02:06:04;;;;;;;;;32.25;28.50;;;;;6.06;90.84;103305.84;6240870;22;45489;-74
2021/12/19 02:08:30;;;;;;;;;40.75;32.25;;;;;5.82;91.10;103259.34;6243213;22;45351;-75
2021/12/19 02:10:56;;;;;;;;;36.00;27.50;;;;;5.61;90.59;103218.13;6242081;22;45201;-74
2021/12/19 02:13:21;;;;;;;;;40.25;28.00;;;;;5.87;90.91;103259.44;6243036;22;45250;-74
2021/12/19 02:15:47;;;;;;;;;45.00;35.25;;;;;6.03;91.35;103282.34;6241086;22;45296;-74
2021/12/19 02:18:17;;;;;;;;;32.75;25.50;;;;;6.05;91.18;103283.25;6214752;22;45521;-74
2021/12/19 02:20:47;;;;;;;;;33.50;30.00;;;;;6.15;91.27;103294.72;6242489;22;45392;-75
2021/12/19 02:23:13;;;;;;;;;38.50;30.00;;;;;6.15;90.76;103296.47;6242249;22;45273;-75
2021/12/19 02:25:39;;;;;;;;;33.75;27.75;;;;;6.14;90.48;103286.88;6242412;22;45103;-75
2021/12/19 02:28:05;;;;;;;;;34.25;28.00;;;;;6.12;91.13;103286.84;6240936;22;46330;-74
2021/12/19 02:30:31;;;;;;;;;32.75;27.75;;;;;6.09;91.35;103284.16;6242076;22;45224;-75
2021/12/19 02:32:57;;;;;;;;;37.50;27.25;;;;;6.17;91.06;103286.94;6241673;22;45502;-74
2021/12/19 02:35:28;;;;;;;;;39.25;30.75;;;;;6.05;90.19;103264.13;6214344;22;45290;-74
2021/12/19 02:49:19;;;;;;;;;33.00;31.50;;;;;5.84;91.10;103241.13;6127087;23;45635;-74
2021/12/19 02:51:46;;;;;;;;;41.50;32.00;;;;;5.87;90.57;103243.78;6148144;23;45400;-74
2021/12/19 02:54:12;;;;;;;;;43.75;29.25;;;;;6.01;91.51;103275.34;6148848;23;45270;-74
2021/12/19 02:56:37;;;;;;;;;33.25;28.75;;;;;6.01;90.93;103268.41;6148136;23;45174;-74
2021/12/19 02:59:03;;;;;;;;;33.25;30.00;;;;;5.64;90.94;103210.38;6148431;23;45754;-74
2021/12/19 03:01:28;;;;;;;;;40.00;30.00;;;;;5.30;91.25;103143.78;6148216;23;45386;-75
2021/12/19 03:03:54;;;;;;;;;44.25;33.50;;;;;5.87;91.17;103244.66;6148830;23;45402;-75
2021/12/19 03:06:19;;;;;;;;;46.75;32.75;;;;;5.78;91.54;103223.66;6173065;23;45343;-75
2021/12/19 03:08:48;;;;;;;;;32.50;28.75;;;;;5.90;91.01;103233.44;6148815;23;45397;-75
2021/12/19 03:18:57;;;;;;;;;44.50;34.25;;;;;6.05;91.17;103243.28;6241442;22;45323;-75
2021/12/19 03:21:24;;;;;;;;;36.00;29.00;;;;;5.36;90.29;103120.47;6239241;22;45471;-74
2021/12/19 03:23:50;;;;;;;;;51.00;31.75;;;;;5.61;91.01;103175.59;6241524;22;45341;-75
2021/12/19 03:26:16;;;;;;;;;40.00;30.25;;;;;5.86;90.88;103208.16;6214219;22;45518;-75
2021/12/19 03:28:41;;;;;;;;;33.75;27.75;;;;;5.54;91.12;103145.94;6243457;22;46113;-75
2021/12/19 03:31:07;;;;;;;;;20.50;19.00;;;;;5.78;90.73;103195.00;6215222;22;45628;-75
2021/12/19 03:33:35;;;;;;;;;29.75;27.00;;;;;5.92;90.76;103216.09;6243173;22;45268;-75
2021/12/19 03:36:00;;;;;;;;;34.25;26.25;;;;;6.03;90.14;103243.25;6243122;22;45198;-75
2021/12/19 03:38:26;;;;;;;;;32.75;24.00;;;;;5.75;90.49;103184.53;6243029;22;45347;-75
2021/12/19 03:41:05;;;;;;;;;29.75;22.75;;;;;6.04;90.65;103228.47;6242408;22;45368;-75
2021/12/19 03:43:31;;;;;;;;;27.25;22.50;;;;;6.04;90.11;103225.88;6215702;22;45289;-74
2021/12/19 03:45:56;;;;;;;;;32.75;26.75;;;;;5.75;90.26;103173.22;6242233;22;45554;-74
2021/12/19 03:48:22;;;;;;;;;32.75;27.75;;;;;5.62;89.89;103151.31;6242474;22;45317;-75
2021/12/19 03:50:49;;;;;;;;;26.50;23.00;;;;;5.95;89.34;103210.94;6215257;22;45713;-75
2021/12/19 03:53:17;;;;;;;;;31.50;22.75;;;;;5.92;89.90;103207.41;6243376;22;45420;-75
2021/12/19 03:55:44;;;;;;;;;38.00;25.50;;;;;5.96;90.13;103212.72;6215056;22;45344;-75
2021/12/19 03:58:09;;;;;;;;;39.00;29.00;;;;;5.96;90.32;103222.28;6242410;22;45283;-75
2021/12/19 04:00:36;;;;;;;;;37.25;26.25;;;;;5.93;90.03;103211.75;6215025;22;45217;-75
2021/12/19 04:03:08;;;;;;;;;37.75;29.25;;;;;4.42;90.00;102960.00;6242144;22;45306;-74
2021/12/19 04:05:35;;;;;;;;;35.00;24.50;;;;;5.79;90.11;103196.78;6243074;22;45374;-74
2021/12/19 04:08:00;;;;;;;;;31.25;25.00;;;;;5.66;90.23;103166.13;6242735;22;45320;-75
2021/12/19 04:10:27;;;;;;;;;38.50;28.00;;;;;5.93;90.13;103204.81;6242891;22;45270;-75
2021/12/19 04:12:54;;;;;;;;;36.00;28.50;;;;;5.94;89.90;103198.75;6243512;22;45300;-74
2021/12/19 04:15:21;;;;;;;;;34.25;27.00;;;;;5.13;90.21;103063.69;6215181;22;45202;-75
2021/12/19 04:17:47;;;;;;;;;35.75;27.00;;;;;5.83;90.00;103177.72;6242680;22;45344;-75
2021/12/19 04:20:15;;;;;;;;;30.25;21.50;;;;;5.93;90.14;103186.56;6241837;22;45328;-75
2021/12/19 04:22:41;;;;;;;;;32.50;24.25;;;;;5.47;90.25;103105.94;6243386;22;45287;-76
2021/12/19 04:25:06;;;;;;;;;32.25;26.25;;;;;5.89;90.53;103177.81;6242901;22;45134;-75
2021/12/19 04:27:33;;;;;;;;;32.75;25.25;;;;;5.40;90.48;103098.84;6242384;22;46214;-75
2021/12/19 04:29:59;;;;;;;;;28.75;24.50;;;;;5.85;90.91;103186.44;6243054;22;45177;-75
2021/12/19 04:32:30;;;;;;;;;31.00;26.00;;;;;5.84;90.34;103179.47;6214904;22;45277;-74
2021/12/19 04:34:56;;;;;;;;;23.75;19.25;;;;;5.83;90.58;103179.47;6242166;22;45257;-75
2021/12/19 04:37:56;;;;;;;;;20.75;20.75;;;;;5.52;90.38;103127.72;6214768;22;48449;-75
2021/12/19 04:40:20;;;;;;;;;21.00;16.50;;;;;5.83;90.41;103166.44;6241355;22;45106;-75
2021/12/19 04:54:16;;;;;;;;;29.00;25.25;;;;;5.48;90.46;103110.25;6119576;23;45283;-74
2021/12/19 04:57:03;;;;;;;;;26.25;19.75;;;;;5.83;90.83;103172.53;6094084;23;45338;-75
2021/12/19 05:02:29;;;;;;;;;22.50;17.75;;;;;5.65;90.82;103138.31;6119891;23;45578;-75
2021/12/19 05:15:46;;;;;;;;;35.50;24.75;;;;;5.73;90.97;103131.53;6120530;23;45353;-74
2021/12/19 05:18:11;;;;;;;;;26.75;21.75;;;;;5.83;90.95;103148.19;6118487;23;45538;-74
2021/12/19 05:20:39;;;;;;;;;29.50;24.75;;;;;5.42;90.68;103071.13;6119191;23;45998;-74
2021/12/19 05:23:18;;;;;;;;;24.50;17.75;;;;;5.82;90.97;103154.25;6119879;23;45305;-75
2021/12/19 05:25:44;;;;;;;;;33.00;21.00;;;;;5.15;91.00;103037.66;6119747;23;45373;-76
2021/12/19 05:28:09;;;;;;;;;26.25;23.00;;;;;5.41;90.14;103079.75;6176207;22;45318;-75
2021/12/19 05:30:34;;;;;;;;;27.00;24.25;;;;;5.20;90.58;103041.22;6242352;22;45246;-74
2021/12/19 05:33:02;;;;;;;;;33.75;29.75;;;;;5.66;91.19;103119.25;6242257;22;45279;-75
2021/12/19 05:46:23;;;;;;;;;26.25;24.25;;;;;5.71;91.21;103120.22;6242221;22;45349;-73
2021/12/19 05:48:49;;;;;;;;;26.25;23.75;;;;;5.87;91.53;103137.84;6241792;22;45263;-74
2021/12/19 05:51:14;;;;;;;;;35.75;22.00;;;;;5.89;91.30;103140.47;6242536;22;45224;-74
2021/12/19 05:53:39;;;;;;;;;35.00;23.75;;;;;5.59;91.23;103083.53;6242497;22;45205;-74
2021/12/19 05:56:05;;;;;;;;;27.00;21.75;;;;;5.70;90.78;103097.59;6242680;22;45489;-74
2021/12/19 05:58:31;;;;;;;;;25.25;20.00;;;;;5.71;90.77;103097.63;6241753;22;45522;-75
2021/12/19 06:00:56;;;;;;;;;30.25;19.25;;;;;5.73;90.45;103102.88;6242485;22;45198;-75
2021/12/19 06:03:22;;;;;;;;;26.25;21.00;;;;;5.55;90.90;103068.72;6242183;22;45280;-75
2021/12/19 06:05:47;;;;;;;;;24.00;20.25;;;;;5.89;90.50;103133.53;6214829;22;45340;-74
2021/12/19 06:08:13;;;;;;;;;31.00;21.25;;;;;5.80;90.56;103115.13;6242581;22;45248;-73
2021/12/19 06:10:38;;;;;;;;;20.75;16.75;;;;;5.50;91.11;103071.22;6242491;22;46091;-74
2021/12/19 06:13:03;;;;;;;;;26.00;21.00;;;;;5.89;90.95;103136.13;6242603;22;45336;-73
2021/12/19 06:15:29;;;;;;;;;23.50;18.50;;;;;5.91;91.48;103138.75;6242382;22;45246;-74
2021/12/19 06:17:54;;;;;;;;;22.00;18.25;;;;;5.91;90.95;103133.56;6242144;22;45462;-74
2021/12/19 06:20:21;;;;;;;;;23.00;19.75;;;;;5.91;91.17;103136.16;6242271;22;45288;-75
2021/12/19 06:22:46;;;;;;;;;27.00;18.25;;;;;5.79;91.34;103115.09;6242349;22;45268;-74
2021/12/19 06:25:12;;;;;;;;;28.75;20.00;;;;;5.83;90.88;103107.38;6242482;22;45320;-74
2021/12/19 06:27:38;;;;;;;;;28.50;21.75;;;;;5.93;91.69;103117.94;6242041;22;45300;-74
2021/12/19 06:30:06;;;;;;;;;22.25;18.50;;;;;5.90;91.00;103122.25;6242240;22;45261;-74
2021/12/19 06:32:31;;;;;;;;;28.75;22.75;;;;;5.93;91.09;103112.72;6241320;22;45371;-76
2021/12/19 06:34:59;;;;;;;;;28.50;21.75;;;;;5.94;91.06;103119.72;6241633;22;45344;-75
2021/12/19 06:37:24;;;;;;;;;24.75;20.00;;;;;5.79;90.92;103089.97;6244113;22;45325;-75
2021/12/19 06:39:50;;;;;;;;;22.50;20.50;;;;;5.89;90.46;103114.41;6246586;22;45542;-75
2021/12/19 06:42:15;;;;;;;;;21.25;15.25;;;;;5.89;90.77;103117.03;6241707;22;45383;-76
2021/12/19 06:44:41;;;;;;;;;17.75;17.75;;;;;5.89;90.46;103107.47;6243056;22;45288;-76
2021/12/19 06:47:06;;;;;;;;;26.50;23.75;;;;;5.92;90.64;103109.25;6242310;22;45304;-73
2021/12/19 06:49:32;;;;;;;;;25.25;20.00;;;;;5.73;91.10;103071.59;6241277;22;45891;-72
2021/12/19 06:51:57;;;;;;;;;23.00;21.50;;;;;5.95;90.26;103104.09;6241033;22;45306;-73
2021/12/19 06:54:23;;;;;;;;;27.50;20.00;;;;;5.93;90.39;103103.19;6214669;22;45368;-74
2021/12/19 06:56:48;;;;;;;;;20.75;16.75;;;;;5.63;90.33;103043.66;6241925;22;45284;-72
2021/12/19 06:59:14;;;;;;;;;22.75;20.25;;;;;5.78;90.32;103069.97;6242115;22;46059;-74
2021/12/19 07:01:40;;;;;;;;;21.50;18.25;;;;;5.71;90.04;103055.94;6214308;22;45193;-74
2021/12/19 07:04:05;;;;;;;;;21.75;18.00;;;;;5.85;89.67;103078.75;6242092;22;45157;-72
2021/12/19 07:06:31;;;;;;;;;30.50;22.25;;;;;5.92;89.53;103092.75;6241086;22;45426;-72
2021/12/19 07:08:56;;;;;;;;;30.50;22.50;;;;;5.90;90.27;103090.13;6241908;22;45259;-72
2021/12/19 07:11:22;;;;;;;;;22.50;19.00;;;;;5.69;90.43;103062.00;6241895;22;45245;-72
2021/12/19 07:13:47;;;;;;;;;27.75;20.75;;;;;5.71;90.14;103065.50;6214411;22;45371;-74
2021/12/19 07:16:13;;;;;;;;;20.00;18.25;;;;;5.89;89.59;103090.97;6214073;22;45939;-72
2021/12/19 07:18:39;;;;;;;;;18.50;15.00;;;;;5.87;89.47;103084.84;6241639;22;45777;-73
2021/12/19 07:21:05;;;;;;;;;21.25;18.25;;;;;5.84;89.37;103092.63;6240978;22;45380;-72
2021/12/19 07:23:31;;;;;;;;;23.25;16.25;;;;;5.31;89.77;103000.66;6242101;22;45289;-74
2021/12/19 07:25:57;;;;;;;;;32.75;20.25;;;;;5.28;89.82;102991.91;6242373;22;45165;-72
2021/12/19 07:28:22;;;;;;;;;22.50;15.00;;;;;5.74;89.84;103059.44;6243428;22;45272;-73
2021/12/19 07:30:48;;;;;;;;;21.50;15.75;;;;;5.90;90.04;103084.91;6246135;22;45366;-74
2021/12/19 07:33:14;;;;;;;;;25.50;20.00;;;;;5.84;89.69;103071.78;6216116;22;45848;-73
2021/12/19 07:35:42;;;;;;;;;24.25;18.25;;;;;5.38;89.91;102996.38;6241267;22;45268;-73
2021/12/19 07:38:10;;;;;;;;;28.75;18.50;;;;;5.64;90.56;103045.41;6241219;22;46065;-72
2021/12/19 07:40:38;;;;;;;;;22.50;22.50;;;;;5.85;90.67;103079.63;6241170;22;45371;-73
2021/12/19 07:43:10;;;;;;;;;28.25;25.00;;;;;5.95;90.56;103090.19;6241846;22;45292;-74
2021/12/19 07:45:36;;;;;;;;;26.50;20.00;;;;;5.94;91.08;103088.44;6213597;22;45647;-72
2021/12/19 07:48:02;;;;;;;;;23.75;17.25;;;;;5.95;91.06;103088.47;6213778;22;46352;-73
2021/12/19 07:50:28;;;;;;;;;29.25;24.50;;;;;5.62;91.24;103027.16;6240400;22;45364;-73
2021/12/19 07:52:54;;;;;;;;;26.25;18.75;;;;;5.80;91.19;103062.16;6241876;22;45130;-75
2021/12/19 07:55:20;;;;;;;;;27.50;23.50;;;;;5.66;91.07;103038.50;6241021;22;45253;-75
2021/12/19 07:57:45;;;;;;;;;29.75;20.00;;;;;5.89;91.55;103083.16;6214975;22;47066;-80
2021/12/19 08:00:13;;;;;;;;;31.50;22.75;;;;;5.71;91.28;103048.13;6213956;22;45181;-79
2021/12/19 08:02:40;;;;;;;;;25.00;22.50;;;;;5.96;91.13;103081.56;6241887;22;45189;-75
2021/12/19 08:05:07;;;;;;;;;23.00;19.75;;;;;5.96;91.13;103077.22;6241314;22;45363;-74
2021/12/19 08:07:33;;;;;;;;;30.25;26.25;;;;;5.80;90.68;103062.16;6241352;22;45294;-72
2021/12/19 08:12:34;;;;;;;;;26.67;19.00;;;;;5.82;90.61;103083.91;6241494;22;45320;-73
2021/12/19 08:15:00;;;;;;;;;20.25;17.00;;;;;5.85;91.34;103083.97;6242625;22;45320;-73
2021/12/19 08:17:26;;;;;;;;;29.00;19.00;;;;;5.86;91.36;103084.00;6242377;22;46085;-73
2021/12/19 08:19:52;;;;;;;;;30.25;19.00;;;;;5.71;91.42;103044.66;6241953;22;45371;-73
2021/12/19 08:22:18;;;;;;;;;20.50;19.50;;;;;5.93;91.33;103068.44;6243574;22;45244;-73
2021/12/19 08:24:46;;;;;;;;;32.25;23.25;;;;;5.97;91.49;103072.88;6242155;22;45259;-72
2021/12/19 08:27:11;;;;;;;;;28.25;23.00;;;;;5.80;91.02;103038.72;6242847;22;45330;-73
2021/12/19 08:29:37;;;;;;;;;26.00;22.00;;;;;6.02;91.03;103069.50;6242598;22;45243;-74
2021/12/19 08:32:03;;;;;;;;;32.00;24.00;;;;;6.00;91.38;103062.50;6215484;22;45276;-74
2021/12/19 08:34:29;;;;;;;;;27.75;24.00;;;;;6.04;91.20;103074.69;6241449;22;45226;-74
2021/12/19 08:36:55;;;;;;;;;29.00;25.00;;;;;5.99;91.35;103069.44;6241726;22;46168;-74
2021/12/19 08:39:21;;;;;;;;;30.25;26.50;;;;;6.08;91.72;103081.75;6242574;22;45310;-73
2021/12/19 08:41:47;;;;;;;;;33.75;28.00;;;;;5.89;91.12;103047.53;6242914;22;45225;-73
2021/12/19 08:44:13;;;;;;;;;27.25;24.25;;;;;6.10;91.04;103072.19;6242838;22;45229;-73
2021/12/19 08:46:40;;;;;;;;;31.75;26.50;;;;;6.11;91.35;103076.53;6242930;22;45576;-73
2021/12/19 08:49:08;;;;;;;;;21.00;21.00;;;;;6.11;91.14;103075.69;6242066;22;45347;-74
2021/12/19 08:51:34;;;;;;;;;35.00;27.50;;;;;6.09;91.03;103068.72;6242953;22;45590;-74
2021/12/19 08:54:00;;;;;;;;;32.25;24.75;;;;;6.05;90.70;103069.53;6242948;22;45391;-73
2021/12/19 08:56:26;;;;;;;;;28.75;21.00;;;;;6.01;91.01;103069.47;6242956;22;45310;-73
2021/12/19 08:58:52;;;;;;;;;18.75;15.50;;;;;5.99;90.47;103068.56;6241581;22;45307;-73
2021/12/19 09:01:17;;;;;;;;;26.00;22.75;;;;;5.90;90.86;103049.31;6243078;22;45268;-72
2021/12/19 09:03:43;;;;;;;;;27.25;22.75;;;;;5.98;90.63;103067.69;6214774;22;45297;-73
2021/12/19 09:06:08;;;;;;;;;23.75;21.75;;;;;5.82;90.46;103058.72;6242626;22;45913;-72
2021/12/19 09:08:34;;;;;;;;;19.75;13.75;;;;;5.86;90.70;103076.19;6242686;22;45373;-73
2021/12/19 09:11:00;;;;;;;;;22.75;18.50;;;;;5.53;90.98;103022.69;6243038;22;45267;-74
2021/12/19 09:13:25;;;;;;;;;18.75;15.25;;;;;5.85;91.24;103074.41;6242555;22;45225;-74
2021/12/19 09:15:51;;;;;;;;;19.50;17.50;;;;;5.84;91.24;103071.78;6242517;22;45323;-73
2021/12/19 09:18:18;;;;;;;;;18.50;14.25;;;;;5.77;90.46;103057.78;6242409;22;45254;-72
2021/12/19 09:20:44;;;;;;;;;17.50;13.00;;;;;5.93;90.37;103073.66;6242261;22;45240;-73
2021/12/19 09:23:11;;;;;;;;;15.50;11.00;;;;;5.89;89.95;103059.69;6242309;22;45459;-74
2021/12/19 09:25:37;;;;;;;;;12.25;7.50;;;;;5.79;90.15;103040.47;6242155;22;46024;-73
2021/12/19 09:28:03;;;;;;;;;12.00;8.00;;;;;6.07;90.57;103077.38;6242387;22;45362;-72
2021/12/19 09:30:29;;;;;;;;;9.25;7.25;;;;;6.16;90.22;103071.41;6214885;22;45385;-73
2021/12/19 09:32:55;;;;;;;;;12.33;10.67;;;;;5.65;89.86;102982.94;6241757;22;45279;-73
2021/12/19 09:35:20;;;;;;;;;13.33;10.33;;;;;6.21;89.88;103074.97;6241489;22;46700;-72
2021/12/19 09:37:46;;;;;;;;;11.67;8.00;;;;;6.23;89.98;103074.13;6242654;22;45272;-73
2021/12/19 09:40:17;;;;;;;;;12.50;10.50;;;;;6.06;89.47;103049.56;6242869;22;45378;-73
2021/12/19 09:42:48;;;;;;;;;18.75;13.25;;;;;6.08;90.14;103047.84;6242075;22;45292;-73
2021/12/19 09:45:15;;;;;;;;;22.50;11.50;;;;;6.26;90.28;103071.56;6241923;22;46088;-73
2021/12/19 09:47:42;;;;;;;;;17.33;12.67;;;;;5.86;89.92;103003.22;6242345;22;45114;-74
2021/12/19 09:50:08;;;;;;;;;13.25;12.25;;;;;6.04;89.44;103039.13;6242321;22;45479;-73
2021/12/19 09:52:35;;;;;;;;;16.25;14.25;;;;;6.28;89.72;103066.38;6242732;22;45347;-73
2021/12/19 09:55:01;;;;;;;;;14.75;14.75;;;;;6.26;90.03;103068.09;6242147;22;45862;-73
2021/12/19 09:57:26;;;;;;;;;15.25;14.00;;;;;6.25;89.26;103067.22;6215231;22;45700;-73
2021/12/19 09:59:52;;;;;;;;;14.00;7.00;;;;;5.61;88.90;102964.63;6244318;22;45274;-73
2021/12/19 10:02:18;;;;;;;;;15.75;13.00;;;;;6.21;89.47;103059.31;6247397;22;45258;-71
2021/12/19 10:04:45;;;;;;;;;18.25;11.00;;;;;5.96;89.61;103017.28;6248037;22;45153;-72
2021/12/19 10:07:12;;;;;;;;;15.50;10.75;;;;;6.27;89.81;103062.00;6249165;22;45155;-72
2021/12/19 10:10:03;;;;;;;;;14.00;11.00;;;;;6.22;89.04;103041.09;6248845;22;45399;-72
2021/12/19 10:12:38;;;;;;;;;12.75;7.25;;;;;6.31;88.93;103055.09;6220376;22;45363;-72
2021/12/19 10:15:29;;;;;;;;;17.25;13.25;;;;;6.17;88.92;103052.31;6250605;22;45900;-72
2021/12/19 10:18:11;;;;;;;;;17.25;12.75;;;;;6.27;89.69;103062.91;6215111;22;45313;-72
2021/12/19 10:20:51;;;;;;;;;11.50;8.25;;;;;6.07;89.64;102997.44;6215133;22;45365;-72
2021/12/19 10:23:23;;;;;;;;;9.00;6.00;;;;;6.50;88.35;103054.47;6243498;22;45440;-72
2021/12/19 10:26:06;;;;;;;;;12.67;4.00;;;;;6.41;87.12;103021.34;6241989;22;46225;-71
2021/12/19 10:28:32;;;;;;;;;7.00;6.00;;;;;6.64;88.20;103052.03;6214819;22;45272;-72
2021/12/19 10:31:00;;;;;;;;;3.67;2.33;;;;;6.73;87.96;103054.75;6240299;22;45324;-73
2021/12/19 10:33:29;;;;;;;;;3.00;3.00;;;;;6.83;87.76;103043.56;6242594;22;45315;-73
2021/12/19 10:35:58;;;;;;;;;3.67;3.00;;;;;6.92;87.58;103042.78;6213942;22;46071;-73
2021/12/19 10:38:29;;;;;;;;;4.67;3.00;;;;;6.28;86.15;102923.84;6241985;22;45390;-73
2021/12/19 10:40:59;;;;;;;;;4.00;3.00;;;;;7.01;86.78;103039.38;6242484;22;45248;-72
2021/12/19 10:43:29;;;;;;;;;4.67;2.67;;;;;6.93;85.91;103026.28;6241828;22;45199;-72
2021/12/19 10:45:58;;;;;;;;;6.33;4.67;;;;;6.91;86.51;103016.66;6242174;22;45959;-73
2021/12/19 10:48:30;;;;;;;;;4.00;4.00;;;;;7.04;85.94;103040.28;6243269;22;45261;-73
2021/12/19 10:50:58;;;;;;;;;6.67;6.33;;;;;7.04;85.82;103037.69;6242201;22;45322;-72
2021/12/19 10:53:52;;;;;;;;;7.00;7.00;;;;;6.74;86.86;102974.75;6241922;22;45367;-72
2021/12/19 10:56:19;;;;;;;;;11.00;8.00;;;;;7.00;85.41;103024.56;6214105;22;46220;-73
2021/12/19 10:58:50;;;;;;;;;12.33;8.00;;;;;6.96;85.99;103020.19;6241437;22;45311;-73
2021/12/19 11:01:29;;;;;;;;;7.67;7.67;;;;;6.98;85.81;103018.47;6242427;22;45178;-72
2021/12/19 11:04:05;;;;;;;;;14.25;11.25;;;;;6.90;85.58;103015.78;6214117;22;45278;-72
2021/12/19 11:06:39;;;;;;;;;15.67;13.33;;;;;6.87;85.58;103007.06;6241678;22;46101;-73
2021/12/19 11:09:12;;;;;;;;;14.00;13.33;;;;;6.88;86.47;103004.47;6241909;22;45218;-73
2021/12/19 11:11:42;;;;;;;;;15.67;13.00;;;;;6.89;85.82;103002.72;6241957;22;45338;-73
2021/12/19 11:14:11;;;;;;;;;20.00;13.67;;;;;6.92;86.02;103007.97;6241175;22;45369;-73
2021/12/19 11:16:37;;;;;;;;;26.00;19.67;;;;;6.91;85.95;102990.56;6240931;22;46019;-72
2021/12/19 11:19:03;;;;;;;;;19.67;14.33;;;;;6.92;85.79;102985.38;6241612;22;45370;-73
2021/12/19 11:21:33;;;;;;;;;22.75;20.25;;;;;6.87;86.00;102973.13;6213714;22;45353;-73
2021/12/19 11:24:00;;;;;;;;;26.00;19.75;;;;;6.71;86.39;102927.75;6241014;22;45165;-72
2021/12/19 11:26:26;;;;;;;;;27.50;21.50;;;;;7.00;86.01;102968.06;6241762;22;45304;-73
2021/12/19 11:28:55;;;;;;;;;16.00;14.75;;;;;7.01;85.55;102961.94;6241502;22;45496;-73
2021/12/19 11:31:20;;;;;;;;;24.00;20.25;;;;;7.03;85.85;102956.75;6241716;22;45218;-74
2021/12/19 11:33:52;;;;;;;;;21.25;11.75;;;;;6.92;85.29;102956.66;6240978;22;45457;-73
2021/12/19 11:36:19;;;;;;;;;9.50;9.00;;;;;6.80;85.39;102957.44;6241688;22;46194;-73
2021/12/19 11:38:47;;;;;;;;;9.00;7.67;;;;;6.47;85.51;102892.75;6241808;22;45292;-73
2021/12/19 11:41:13;;;;;;;;;10.00;7.75;;;;;6.76;85.99;102937.38;6241931;22;45349;-73
2021/12/19 11:43:40;;;;;;;;;9.67;8.33;;;;;6.86;86.13;102951.41;6241621;22;45133;-72
2021/12/19 11:46:14;;;;;;;;;9.33;7.67;;;;;6.52;85.90;102887.56;6240987;22;46019;-72
2021/12/19 11:48:40;;;;;;;;;11.00;8.00;;;;;6.93;85.49;102949.69;6242848;22;45260;-73
2021/12/19 11:51:15;;;;;;;;;8.00;8.00;;;;;6.75;85.64;102909.56;6242404;22;45312;-73
2021/12/19 11:53:43;;;;;;;;;6.00;4.67;;;;;6.93;85.91;102934.94;6242341;22;45386;-73
2021/12/19 11:56:16;;;;;;;;;9.67;8.33;;;;;6.91;85.73;102928.81;6242360;22;45932;-72
2021/12/19 11:58:48;;;;;;;;;7.33;4.00;;;;;6.85;86.03;102931.38;6242237;22;45304;-71
2021/12/19 12:01:14;;;;;;;;;12.33;7.67;;;;;6.88;86.29;102920.97;6242330;22;45270;-72
2021/12/19 12:03:48;;;;;;;;;13.00;13.00;;;;;5.92;85.70;102754.03;6242046;22;45244;-73
2021/12/19 12:06:17;;;;;;;;;16.75;12.75;;;;;6.82;85.87;102924.41;6242568;22;45388;-72
2021/12/19 12:09:02;;;;;;;;;19.33;19.33;;;;;6.78;86.61;102919.13;6215086;22;45321;-73
2021/12/19 12:11:28;;;;;;;;;25.25;20.25;;;;;6.58;86.66;102896.34;6242051;22;45415;-74
2021/12/19 12:13:53;;;;;;;;;32.75;23.00;;;;;6.70;86.39;102916.47;6241685;22;45391;-73
2021/12/19 12:16:32;;;;;;;;;31.75;24.25;;;;;6.69;87.11;102912.09;6241836;22;46224;-73
2021/12/19 12:19:00;;;;;;;;;23.50;18.25;;;;;6.77;87.20;102906.94;6242073;22;45276;-74
2021/12/19 12:24:06;;;;;;;;;12.00;10.33;;;;;6.88;86.68;102897.47;6242508;22;45418;-74
2021/12/19 12:26:40;;;;;;;;;12.33;9.00;;;;;6.81;86.66;102869.59;6242641;22;46624;-74